createdAt,value
2023-04-11T00:00:17.712Z,304.76
2023-04-11T00:01:13.290Z,314.09
2023-04-11T00:02:09.162Z,324.98
2023-04-11T00:03:04.389Z,323.38
2023-04-11T00:03:59.479Z,327.25
2023-04-11T00:04:54.325Z,330.88
2023-04-11T00:05:49.512Z,342.27
2023-04-11T00:06:44.492Z,349.19
2023-04-11T00:07:39.630Z,354.85
2023-04-11T00:08:34.588Z,358.73
2023-04-11T00:09:29.781Z,358.34
2023-04-11T00:10:24.738Z,358.73
2023-04-11T00:11:24.904Z,359.13
2023-04-11T00:12:20.010Z,357.17
2023-04-11T00:13:15.423Z,364.31
2023-04-11T00:14:11.218Z,367.58
2023-04-11T00:15:06.478Z,363.50
2023-04-11T00:16:01.878Z,357.56
2023-04-11T00:16:58.084Z,358.73
2023-04-11T00:17:53.174Z,358.34
2023-04-11T00:18:49.138Z,358.34
2023-04-11T00:19:44.344Z,361.90
2023-04-11T00:20:40.044Z,366.34
2023-04-11T00:21:35.444Z,367.99
2023-04-11T00:22:30.726Z,366.75
2023-04-11T00:23:26.523Z,364.71
2023-04-11T00:24:21.746Z,360.31
2023-04-11T00:25:17.123Z,365.93
2023-04-11T00:26:12.957Z,373.01
2023-04-11T00:27:08.064Z,379.53
2023-04-11T00:28:03.375Z,386.12
2023-04-11T00:28:59.614Z,384.56
2023-04-11T00:29:54.865Z,383.68
2023-04-11T00:30:50.156Z,385.68
2023-04-11T00:31:45.319Z,385.90
2023-04-11T00:32:41.192Z,377.73
2023-04-11T00:33:36.666Z,368.81
2023-04-11T00:34:32.220Z,363.50
2023-04-11T00:35:27.370Z,365.53
2023-04-11T00:36:22.946Z,369.23
2023-04-11T00:37:18.610Z,369.64
2023-04-11T00:38:13.847Z,371.74
2023-04-11T00:39:09.227Z,368.81
2023-04-11T00:40:05.259Z,373.43
2023-04-11T00:41:00.549Z,376.00
2023-04-11T00:41:56.338Z,370.06
2023-04-11T00:42:51.593Z,361.90
2023-04-11T00:43:46.969Z,343.34
2023-04-11T00:44:42.672Z,338.39
2023-04-11T00:45:38.005Z,333.23
2023-04-11T00:46:33.141Z,324.02
2023-04-11T00:47:28.398Z,327.25
2023-04-11T00:48:23.721Z,327.90
2023-04-11T00:49:18.697Z,325.62
2023-04-11T00:50:13.830Z,323.70
2023-04-11T00:51:08.973Z,319.60
2023-04-11T00:52:03.936Z,320.54
2023-04-11T00:52:58.950Z,320.22
2023-04-11T00:53:58.409Z,316.21
2023-04-11T00:54:53.619Z,314.39
2023-04-11T00:55:49.092Z,316.21
2023-04-11T00:56:44.626Z,321.16
2023-04-11T00:57:39.886Z,314.09
2023-04-11T00:58:35.124Z,308.19
2023-04-11T00:59:31.334Z,293.31
2023-04-11T01:00:26.562Z,287.40
2023-04-11T01:01:24.557Z,282.46
2023-04-11T01:02:17.523Z,280.52
2023-04-11T01:03:12.802Z,279.81
2023-04-11T01:04:08.597Z,275.58
2023-04-11T01:05:03.596Z,272.83
2023-04-11T01:05:59.554Z,271.47
2023-04-11T01:06:54.650Z,269.69
2023-04-11T01:07:50.061Z,264.90
2023-04-11T01:08:45.868Z,261.94
2023-04-11T01:09:40.995Z,255.61
2023-04-11T01:10:36.403Z,248.26
2023-04-11T01:11:32.594Z,242.39
2023-04-11T01:12:27.893Z,238.52
2023-04-11T01:13:23.559Z,231.61
2023-04-11T01:14:18.804Z,229.67
2023-04-11T01:15:14.218Z,224.48
2023-04-11T01:16:09.985Z,222.05
2023-04-11T01:17:05.254Z,219.23
2023-04-11T01:18:01.155Z,217.63
2023-04-11T01:18:56.326Z,213.67
2023-04-11T01:19:51.413Z,213.67
2023-04-11T01:20:47.362Z,210.24
2023-04-11T01:21:42.631Z,211.33
2023-04-11T01:22:37.988Z,214.08
2023-04-11T01:23:34.111Z,213.80
2023-04-11T01:24:29.349Z,214.36
2023-04-11T01:25:25.383Z,215.21
2023-04-11T01:26:20.310Z,218.21
2023-04-11T01:27:15.695Z,221.90
2023-04-11T01:28:11.366Z,222.65
2023-04-11T01:29:06.633Z,223.72
2023-04-11T01:30:02.553Z,223.26
2023-04-11T01:30:57.773Z,218.65
2023-04-11T01:31:53.045Z,215.21
2023-04-11T01:32:48.899Z,212.01
2023-04-11T01:33:44.113Z,212.42
2023-04-11T01:34:39.407Z,214.22
2023-04-11T01:35:35.800Z,213.67
2023-04-11T01:36:30.988Z,212.70
2023-04-11T01:37:26.111Z,207.85
2023-04-11T01:38:21.939Z,209.04
2023-04-11T01:39:17.115Z,212.97
2023-04-11T01:40:13.065Z,215.91
2023-04-11T01:41:07.997Z,214.64
2023-04-11T01:42:03.462Z,216.20
2023-04-11T01:42:59.110Z,212.01
2023-04-11T01:43:54.398Z,200.11
2023-04-11T01:44:49.781Z,201.84
2023-04-11T01:45:46.043Z,200.24
2023-04-11T01:46:41.284Z,206.54
2023-04-11T01:47:37.133Z,212.70
2023-04-11T01:48:32.259Z,222.20
2023-04-11T01:49:27.619Z,224.79
2023-04-11T01:50:23.471Z,227.28
2023-04-11T01:51:18.581Z,236.80
2023-04-11T01:52:13.751Z,243.29
2023-04-11T01:53:09.021Z,253.64
2023-04-11T01:54:04.240Z,259.66
2023-04-11T01:54:59.551Z,265.76
2023-04-11T01:55:54.347Z,268.80
2023-04-11T01:56:49.521Z,279.33
2023-04-11T01:57:44.498Z,287.15
2023-04-11T01:58:39.587Z,297.30
2023-04-11T01:59:34.538Z,303.63
2023-04-11T02:00:29.810Z,312.30
2023-04-11T02:01:24.642Z,312.89
2023-04-11T02:02:19.712Z,313.79
2023-04-11T02:03:14.762Z,317.13
2023-04-11T02:04:09.951Z,318.05
2023-04-11T02:05:04.825Z,309.64
2023-04-11T02:05:59.988Z,303.63
2023-04-11T02:06:54.977Z,298.65
2023-04-11T02:07:50.059Z,299.74
2023-04-11T02:08:45.144Z,299.74
2023-04-11T02:09:40.157Z,296.23
2023-04-11T02:10:35.394Z,300.02
2023-04-11T02:11:30.307Z,300.57
2023-04-11T02:12:25.345Z,299.20
2023-04-11T02:13:20.466Z,304.19
2023-04-11T02:14:15.675Z,303.35
2023-04-11T02:15:12.010Z,302.51
2023-04-11T02:16:07.160Z,305.61
2023-04-11T02:17:03.079Z,306.46
2023-04-11T02:17:58.324Z,313.49
2023-04-11T02:18:53.575Z,312.89
2023-04-11T02:19:49.359Z,317.43
2023-04-11T02:20:44.646Z,325.95
2023-04-11T02:21:40.414Z,320.85
2023-04-11T02:22:35.474Z,322.74
2023-04-11T02:23:31.031Z,329.55
2023-04-11T02:24:26.645Z,330.21
2023-04-11T02:25:21.963Z,311.41
2023-04-11T02:26:17.052Z,311.70
2023-04-11T02:27:13.532Z,296.76
2023-04-11T02:28:08.747Z,288.92
2023-04-11T02:29:04.396Z,302.23
2023-04-11T02:29:59.648Z,317.43
2023-04-11T02:30:54.990Z,332.55
2023-04-11T02:31:50.773Z,355.62
2023-04-11T02:32:45.936Z,373.86
2023-04-11T02:33:41.805Z,386.79
2023-04-11T02:34:36.951Z,393.64
2023-04-11T02:35:32.517Z,406.61
2023-04-11T02:36:28.183Z,424.19
2023-04-11T02:37:23.547Z,432.17
2023-04-11T02:38:18.753Z,429.66
2023-04-11T02:39:15.097Z,441.03
2023-04-11T02:40:10.358Z,438.99
2023-04-11T02:41:06.414Z,431.61
2023-04-11T02:42:01.510Z,429.94
2023-04-11T02:42:56.854Z,426.09
2023-04-11T02:43:52.526Z,417.03
2023-04-11T02:44:47.925Z,429.66
2023-04-11T02:45:43.620Z,436.12
2023-04-11T02:46:38.904Z,445.74
2023-04-11T02:47:34.325Z,452.40
2023-04-11T02:48:29.984Z,456.42
2023-04-11T02:49:25.436Z,448.74
2023-04-11T02:50:20.366Z,458.62
2023-04-11T02:51:16.857Z,466.32
2023-04-11T02:52:12.113Z,465.02
2023-04-11T02:53:07.950Z,460.84
2023-04-11T02:54:03.124Z,451.17
2023-04-11T02:54:58.576Z,451.17
2023-04-11T02:55:54.217Z,448.44
2023-04-11T02:56:49.541Z,447.84
2023-04-11T02:57:45.339Z,449.05
2023-04-11T02:58:40.552Z,433.85
2023-04-11T02:59:35.983Z,434.70
2023-04-11T03:00:31.655Z,433.85
2023-04-11T03:01:26.939Z,426.36
2023-04-11T03:02:22.338Z,424.46
2023-04-11T03:03:18.654Z,422.58
2023-04-11T03:04:13.649Z,416.25
2023-04-11T03:05:09.569Z,412.90
2023-04-11T03:06:04.836Z,401.71
2023-04-11T03:07:00.100Z,402.19
2023-04-11T03:07:55.886Z,406.61
2023-04-11T03:08:50.988Z,408.60
2023-04-11T03:09:47.110Z,406.85
2023-04-11T03:10:42.090Z,408.35
2023-04-11T03:11:37.420Z,411.37
2023-04-11T03:12:33.107Z,408.35
2023-04-11T03:13:28.367Z,408.60
2023-04-11T03:14:23.707Z,410.61
2023-04-11T03:15:19.967Z,408.60
2023-04-11T03:16:15.169Z,409.60
2023-04-11T03:17:14.490Z,406.36
2023-04-11T03:18:09.600Z,411.12
2023-04-11T03:19:05.000Z,426.36
2023-04-11T03:20:00.870Z,441.32
2023-04-11T03:20:56.206Z,386.35
2023-04-11T03:21:51.536Z,399.06
2023-04-11T03:22:47.672Z,415.47
2023-04-11T03:23:43.012Z,425.28
2023-04-11T03:24:38.707Z,434.14
2023-04-11T03:25:34.177Z,447.24
2023-04-11T03:26:29.169Z,451.17
2023-04-11T03:27:25.086Z,462.12
2023-04-11T03:28:20.179Z,476.99
2023-04-11T03:29:16.004Z,496.52
2023-04-11T03:30:11.225Z,509.42
2023-04-11T03:31:06.805Z,507.48
2023-04-11T03:32:02.236Z,518.53
2023-04-11T03:32:57.524Z,530.92
2023-04-11T03:33:52.627Z,546.59
2023-04-11T03:34:47.824Z,535.61
2023-04-11T03:35:43.251Z,547.03
2023-04-11T03:36:38.393Z,483.91
2023-04-11T03:37:33.501Z,437.55
2023-04-11T03:38:29.321Z,442.20
2023-04-11T03:39:24.541Z,447.54
2023-04-11T03:40:19.854Z,422.05
2023-04-11T03:41:15.851Z,422.58
2023-04-11T03:42:10.916Z,432.17
2023-04-11T03:43:06.243Z,450.56
2023-04-11T03:44:01.324Z,454.25
2023-04-11T03:44:56.428Z,457.99
2023-04-11T03:45:51.508Z,467.30
2023-04-11T03:46:46.844Z,464.37
2023-04-11T03:47:41.640Z,452.09
2023-04-11T03:48:36.698Z,470.93
2023-04-11T03:49:31.755Z,458.30
2023-04-11T03:50:26.941Z,438.99
2023-04-11T03:51:22.053Z,398.11
2023-04-11T03:52:16.974Z,359.52
2023-04-11T03:53:11.929Z,327.25
2023-04-11T03:54:07.077Z,332.55
2023-04-11T03:55:02.078Z,331.55
2023-04-11T03:55:57.103Z,329.88
2023-04-11T03:56:52.345Z,335.27
2023-04-11T03:57:47.241Z,338.73
2023-04-11T03:58:42.896Z,328.56
2023-04-11T03:59:38.210Z,323.38
2023-04-11T04:00:33.981Z,324.66
2023-04-11T04:01:29.380Z,319.29
2023-04-11T04:02:24.606Z,305.61
2023-04-11T04:03:20.544Z,291.49
2023-04-11T04:04:15.563Z,277.68
2023-04-11T04:05:10.834Z,263.62
2023-04-11T04:06:07.354Z,257.42
2023-04-11T04:07:02.515Z,256.01
2023-04-11T04:07:58.199Z,248.45
2023-04-11T04:08:53.445Z,238.17
2023-04-11T04:09:48.673Z,226.65
2023-04-11T04:10:44.743Z,219.97
2023-04-11T04:11:39.700Z,218.50
2023-04-11T04:12:35.658Z,213.53
2023-04-11T04:13:30.769Z,198.78
2023-04-11T04:14:26.198Z,188.83
2023-04-11T04:15:22.027Z,185.21
2023-04-11T04:16:17.349Z,178.10
2023-04-11T04:17:12.638Z,174.19
2023-04-11T04:18:08.801Z,173.47
2023-04-11T04:19:03.919Z,170.80
2023-04-11T04:19:59.794Z,166.71
2023-04-11T04:20:55.036Z,163.12
2023-04-11T04:21:50.573Z,153.24
2023-04-11T04:22:46.108Z,159.54
2023-04-11T04:23:41.381Z,164.57
2023-04-11T04:26:01.299Z,175.10
2023-04-11T04:26:56.395Z,171.51
2023-04-11T04:27:51.700Z,174.19
2023-04-11T04:28:46.824Z,174.92
2023-04-11T04:29:42.080Z,176.40
2023-04-11T04:30:37.434Z,175.66
2023-04-11T04:31:32.630Z,174.01
2023-04-11T04:32:27.764Z,169.59
2023-04-11T04:33:23.005Z,165.88
2023-04-11T04:34:18.296Z,159.84
2023-04-11T04:35:13.581Z,155.23
2023-04-11T04:36:09.212Z,153.10
2023-04-11T04:37:04.105Z,151.98
2023-04-11T04:37:59.349Z,146.00
2023-04-11T04:38:54.624Z,142.87
2023-04-11T04:39:49.818Z,137.46
2023-04-11T04:40:45.312Z,137.01
2023-04-11T04:41:40.353Z,135.56
2023-04-11T04:42:35.667Z,133.93
2023-04-11T04:43:30.953Z,131.09
2023-04-11T04:44:26.331Z,126.81
2023-04-11T04:45:21.648Z,120.57
2023-04-11T04:46:17.179Z,113.68
2023-04-11T04:47:12.215Z,110.88
2023-04-11T04:48:07.543Z,112.68
2023-04-11T04:49:02.740Z,114.06
2023-04-11T04:49:57.949Z,110.22
2023-04-11T04:50:53.183Z,110.73
2023-04-11T04:51:48.489Z,112.75
2023-04-11T04:52:43.722Z,114.46
2023-04-11T04:53:39.124Z,117.85
2023-04-11T04:54:34.230Z,119.03
2023-04-11T04:55:29.673Z,117.52
2023-04-11T04:56:24.813Z,117.19
2023-04-11T04:57:20.004Z,115.56
2023-04-11T04:58:15.243Z,114.30
2023-04-11T04:59:10.560Z,114.69
2023-04-11T05:00:05.809Z,117.35
2023-04-11T05:01:01.337Z,118.60
2023-04-11T05:01:56.414Z,121.01
2023-04-11T05:02:51.839Z,123.25
2023-04-11T05:03:47.107Z,121.45
2023-04-11T05:04:42.395Z,116.86
2023-04-11T05:05:37.741Z,116.70
2023-04-11T05:06:33.108Z,104.17
2023-04-11T05:07:28.284Z,98.16
2023-04-11T05:08:23.560Z,101.01
2023-04-11T05:09:18.811Z,106.36
2023-04-11T05:10:14.157Z,109.93
2023-04-11T05:11:09.627Z,114.38
2023-04-11T05:12:05.581Z,118.60
2023-04-11T05:13:00.078Z,123.25
2023-04-11T05:13:55.662Z,127.78
2023-04-11T05:14:50.793Z,128.56
2023-04-11T05:15:46.395Z,127.29
2023-04-11T05:16:41.727Z,128.56
2023-04-11T05:17:37.016Z,129.96
2023-04-11T05:18:32.313Z,130.17
2023-04-11T05:19:27.762Z,131.71
2023-04-11T05:20:23.354Z,129.76
2023-04-11T05:21:18.667Z,126.61
2023-04-11T05:22:13.988Z,128.76
2023-04-11T05:23:09.396Z,131.81
2023-04-11T05:24:04.726Z,135.56
2023-04-11T05:25:00.201Z,141.90
2023-04-11T05:25:55.671Z,145.11
2023-04-11T05:26:51.197Z,141.30
2023-04-11T05:27:46.593Z,140.00
2023-04-11T05:28:42.133Z,136.22
2023-04-11T05:29:37.667Z,135.45
2023-04-11T05:30:33.286Z,133.29
2023-04-11T05:31:28.410Z,132.44
2023-04-11T05:32:24.029Z,129.66
2023-04-11T05:33:19.177Z,127.58
2023-04-11T05:34:14.607Z,125.38
2023-04-11T05:35:10.050Z,127.09
2023-04-11T05:36:05.398Z,129.46
2023-04-11T05:37:00.767Z,128.17
2023-04-11T05:37:55.942Z,125.66
2023-04-11T05:38:51.338Z,123.98
2023-04-11T05:39:46.748Z,124.53
2023-04-11T05:40:42.176Z,125.75
2023-04-11T05:41:37.483Z,125.85
2023-04-11T05:42:32.907Z,125.19
2023-04-11T05:43:28.213Z,125.09
2023-04-11T05:44:23.545Z,119.37
2023-04-11T05:45:19.059Z,120.75
2023-04-11T05:46:14.273Z,127.09
2023-04-11T05:47:09.502Z,123.25
2023-04-11T05:48:04.940Z,129.66
2023-04-11T05:49:00.168Z,142.14
2023-04-11T05:49:55.693Z,150.34
2023-04-11T05:50:50.871Z,156.84
2023-04-11T05:51:46.094Z,162.96
2023-04-11T05:52:41.685Z,167.21
2023-04-11T05:53:36.912Z,169.93
2023-04-11T05:54:32.246Z,169.24
2023-04-11T05:55:27.588Z,171.68
2023-04-11T05:56:23.048Z,173.65
2023-04-11T05:57:18.353Z,178.67
2023-04-11T05:58:13.828Z,180.60
2023-04-11T05:59:09.101Z,182.78
2023-04-11T06:00:04.620Z,184.89
2023-04-11T06:01:00.011Z,184.89
2023-04-11T06:01:55.320Z,188.83
2023-04-11T06:02:50.792Z,183.58
2023-04-11T06:03:46.173Z,170.46
2023-04-11T06:04:41.660Z,169.24
2023-04-11T06:05:36.986Z,173.11
2023-04-11T06:06:32.155Z,172.75
2023-04-11T06:07:27.623Z,178.29
2023-04-11T06:08:22.934Z,180.99
2023-04-11T06:09:18.401Z,182.58
2023-04-11T06:10:13.856Z,182.98
2023-04-11T06:11:09.199Z,187.75
2023-04-11T06:12:04.500Z,187.32
2023-04-11T06:13:00.147Z,182.98
2023-04-11T06:13:55.490Z,179.24
2023-04-11T06:14:50.883Z,183.78
2023-04-11T06:15:46.111Z,185.31
2023-04-11T06:16:41.543Z,190.14
2023-04-11T06:17:36.848Z,191.25
2023-04-11T06:18:32.306Z,192.71
2023-04-11T06:19:27.620Z,193.73
2023-04-11T06:20:23.261Z,195.23
2023-04-11T06:21:18.437Z,193.28
2023-04-11T06:22:13.910Z,194.54
2023-04-11T06:23:09.497Z,191.47
2023-04-11T06:24:04.856Z,185.83
2023-04-11T06:25:00.454Z,183.18
2023-04-11T06:25:55.675Z,188.18
2023-04-11T06:26:50.948Z,189.59
2023-04-11T06:27:46.406Z,191.47
2023-04-11T06:28:41.712Z,193.50
2023-04-11T06:29:37.342Z,192.82
2023-04-11T06:30:32.489Z,196.16
2023-04-11T06:31:28.037Z,203.72
2023-04-11T06:32:23.289Z,214.64
2023-04-11T06:33:18.841Z,226.18
2023-04-11T06:34:14.008Z,230.31
2023-04-11T06:35:09.395Z,230.64
2023-04-11T06:36:06.163Z,237.14
2023-04-11T06:37:00.124Z,239.91
2023-04-11T06:37:55.548Z,249.21
2023-04-11T06:38:50.829Z,258.23
2023-04-11T06:39:46.371Z,258.84
2023-04-11T06:40:41.784Z,259.66
2023-04-11T06:41:37.079Z,260.07
2023-04-11T06:42:32.391Z,264.47
2023-04-11T06:43:27.733Z,243.29
2023-04-11T06:44:23.062Z,227.76
2023-04-11T06:45:18.382Z,234.26
2023-04-11T06:46:13.738Z,240.26
2023-04-11T06:47:09.183Z,251.69
2023-04-11T06:48:04.663Z,246.95
2023-04-11T06:49:00.112Z,251.50
2023-04-11T06:49:55.380Z,264.05
2023-04-11T06:50:50.962Z,277.68
2023-04-11T06:51:46.280Z,294.10
2023-04-11T06:52:41.864Z,308.19
2023-04-11T06:53:37.057Z,316.21
2023-04-11T06:54:32.669Z,325.30
2023-04-11T06:55:27.835Z,327.58
2023-04-11T06:56:23.422Z,330.55
2023-04-11T06:57:18.667Z,335.96
2023-04-11T06:58:14.143Z,326.60
2023-04-11T06:59:09.611Z,330.21
2023-04-11T07:00:04.787Z,342.63
2023-04-11T07:01:00.346Z,356.40
2023-04-11T07:01:55.819Z,359.91
2023-04-11T07:02:51.147Z,364.71
2023-04-11T07:03:46.533Z,333.91
2023-04-11T07:04:41.979Z,344.06
2023-04-11T07:05:39.450Z,368.40
2023-04-11T07:06:32.632Z,391.56
2023-04-11T07:07:28.046Z,400.50
2023-04-11T07:08:23.431Z,427.46
2023-04-11T07:09:18.929Z,463.72
2023-04-11T07:10:14.018Z,494.32
2023-04-11T07:11:09.594Z,520.15
2023-04-11T07:12:04.730Z,539.95
2023-04-11T07:13:00.277Z,575.35
2023-04-11T07:13:55.767Z,584.94
2023-04-11T07:14:51.159Z,595.39
2023-04-11T07:15:46.313Z,594.86
2023-04-11T07:16:41.780Z,600.75
2023-04-11T07:17:37.004Z,593.80
2023-04-11T07:18:32.504Z,593.27
2023-04-11T07:19:27.721Z,590.64
2023-04-11T07:20:23.178Z,602.92
2023-04-11T07:21:18.464Z,634.47
2023-04-11T07:22:13.906Z,651.84
2023-04-11T07:23:09.186Z,646.16
2023-04-11T07:24:04.672Z,622.63
2023-04-11T07:24:59.966Z,589.60
2023-04-11T07:25:55.419Z,581.37
2023-04-11T07:26:50.711Z,576.35
2023-04-11T07:27:46.183Z,575.35
2023-04-11T07:28:42.052Z,575.35
2023-04-11T07:29:36.993Z,571.41
2023-04-11T07:30:32.276Z,573.37
2023-04-11T07:31:27.802Z,564.63
2023-04-11T07:32:22.975Z,568.00
2023-04-11T07:33:18.500Z,568.97
2023-04-11T07:34:13.646Z,563.68
2023-04-11T07:35:09.140Z,550.65
2023-04-11T07:36:04.448Z,546.14
2023-04-11T07:36:59.764Z,540.82
2023-04-11T07:37:55.040Z,551.10
2023-04-11T07:38:50.780Z,570.43
2023-04-11T07:39:45.836Z,594.33
2023-04-11T07:40:41.274Z,578.85
2023-04-11T07:41:36.574Z,583.92
2023-04-11T07:42:32.048Z,623.79
2023-04-11T07:43:27.465Z,615.16
2023-04-11T07:44:23.933Z,660.89
2023-04-11T07:45:18.242Z,685.34
2023-04-11T07:46:15.796Z,739.28
2023-04-11T07:47:10.969Z,756.80
2023-04-11T07:48:06.463Z,749.16
2023-04-11T07:49:01.875Z,717.03
2023-04-11T07:49:57.208Z,699.72
2023-04-11T07:50:52.217Z,717.80
2023-04-11T07:51:47.295Z,719.34
2023-04-11T07:52:42.459Z,731.18
2023-04-11T07:53:37.560Z,690.30
2023-04-11T07:54:32.577Z,731.98
2023-04-11T07:55:27.628Z,754.24
2023-04-11T07:56:22.720Z,785.76
2023-04-11T07:57:18.151Z,803.73
2023-04-11T07:58:13.214Z,852.49
2023-04-11T07:59:08.320Z,866.88
2023-04-11T08:00:03.415Z,867.45
2023-04-11T08:00:58.471Z,896.58
2023-04-11T08:01:53.614Z,945.47
2023-04-11T08:02:48.700Z,968.79
2023-04-11T08:03:43.803Z,961.12
2023-04-11T08:04:38.840Z,934.87
2023-04-11T08:05:34.421Z,758.52
2023-04-11T08:06:29.666Z,664.84
2023-04-11T08:07:25.011Z,687.46
2023-04-11T08:08:20.403Z,714.72
2023-04-11T08:09:15.912Z,717.80
2023-04-11T08:10:11.297Z,726.40
2023-04-11T08:11:06.489Z,713.95
2023-04-11T08:12:02.171Z,669.51
2023-04-11T08:12:57.555Z,638.12
2023-04-11T08:13:53.188Z,678.36
2023-04-11T08:14:48.660Z,649.93
2023-04-11T08:15:44.016Z,624.96
2023-04-11T08:16:39.438Z,650.57
2023-04-11T08:17:35.087Z,672.21
2023-04-11T08:18:30.737Z,690.30
2023-04-11T08:19:25.877Z,708.64
2023-04-11T08:20:25.222Z,700.46
2023-04-11T08:21:20.566Z,714.72
2023-04-11T08:22:16.040Z,744.23
2023-04-11T08:23:11.467Z,751.69
2023-04-11T08:24:06.929Z,732.78
2023-04-11T08:25:02.195Z,800.36
2023-04-11T08:25:57.557Z,822.55
2023-04-11T08:26:53.061Z,818.02
2023-04-11T08:27:48.314Z,802.77
2023-04-11T08:28:44.164Z,804.22
2023-04-11T08:29:39.349Z,782.07
2023-04-11T08:30:34.774Z,772.12
2023-04-11T08:31:30.088Z,793.70
2023-04-11T08:32:25.609Z,803.25
2023-04-11T08:33:20.952Z,798.45
2023-04-11T08:34:16.248Z,835.42
2023-04-11T08:35:11.008Z,849.24
2023-04-11T08:36:06.168Z,844.94
2023-04-11T08:37:01.076Z,898.99
2023-04-11T08:37:56.262Z,862.40
2023-04-11T08:38:51.258Z,849.78
2023-04-11T08:39:46.252Z,885.28
2023-04-11T08:40:41.339Z,833.33
2023-04-11T08:41:38.332Z,783.91
2023-04-11T08:42:33.326Z,751.27
2023-04-11T08:43:28.538Z,740.10
2023-04-11T08:44:23.487Z,702.67
2023-04-11T08:45:18.517Z,625.55
2023-04-11T08:46:13.785Z,639.96
2023-04-11T08:47:08.590Z,691.02
2023-04-11T08:48:03.634Z,683.93
2023-04-11T08:48:58.821Z,649.93
2023-04-11T08:49:54.043Z,655.69
2023-04-11T08:50:50.810Z,698.26
2023-04-11T08:51:46.080Z,730.38
2023-04-11T08:52:44.015Z,758.52
2023-04-11T08:53:37.557Z,767.68
2023-04-11T08:54:32.981Z,753.81
2023-04-11T08:55:28.825Z,750.84
2023-04-11T08:56:24.398Z,718.57
2023-04-11T08:57:20.241Z,750.84
2023-04-11T08:58:15.826Z,772.12
2023-04-11T08:59:11.115Z,781.16
2023-04-11T09:00:07.113Z,785.29
2023-04-11T09:01:02.632Z,827.14
2023-04-11T09:01:58.165Z,811.55
2023-04-11T09:02:54.329Z,833.33
2023-04-11T09:03:49.771Z,852.49
2023-04-11T09:04:45.581Z,849.24
2023-04-11T09:05:41.046Z,875.98
2023-04-11T09:06:36.521Z,915.01
2023-04-11T09:07:32.409Z,851.40
2023-04-11T09:08:27.766Z,831.26
2023-04-11T09:09:23.676Z,836.47
2023-04-11T09:10:18.897Z,797.97
2023-04-11T09:11:14.359Z,480.77
2023-04-11T09:12:10.097Z,540.82
2023-04-11T09:13:05.682Z,601.29
2023-04-11T09:14:00.969Z,679.06
2023-04-11T09:14:57.289Z,757.66
2023-04-11T09:15:52.795Z,813.53
2023-04-11T09:16:48.731Z,801.32
2023-04-11T09:17:44.262Z,623.21
2023-04-11T09:18:39.746Z,151.71
2023-04-11T09:19:35.329Z,88.45
2023-04-11T09:20:30.767Z,58.21
2023-04-11T09:21:26.778Z,35.57
2023-04-11T09:22:22.256Z,29.37
2023-04-11T09:23:17.449Z,27.86
2023-04-11T09:24:13.113Z,33.84
2023-04-11T09:25:08.586Z,29.31
2023-04-11T09:26:03.846Z,0.00
2023-04-11T09:27:00.457Z,34.31
2023-04-11T09:27:55.913Z,37.69
2023-04-11T09:28:51.539Z,36.96
2023-04-11T09:29:47.040Z,34.01
2023-04-11T09:30:42.416Z,33.09
2023-04-11T09:31:38.339Z,32.35
2023-04-11T09:32:34.022Z,29.91
2023-04-11T09:33:29.588Z,32.07
2023-04-11T09:34:24.957Z,34.95
2023-04-11T09:35:20.500Z,31.57
2023-04-11T09:36:16.299Z,34.63
2023-04-11T09:37:12.017Z,33.73
2023-04-11T09:38:07.287Z,31.83
2023-04-11T09:39:02.760Z,35.39
2023-04-11T09:39:58.455Z,31.66
2023-04-11T09:40:54.004Z,29.62
2023-04-11T09:41:49.569Z,30.80
2023-04-11T09:42:45.307Z,41.10
2023-04-11T09:43:40.555Z,43.01
2023-04-11T09:44:36.371Z,50.62
2023-04-11T09:45:38.209Z,45.69
2023-04-11T09:46:28.326Z,47.24
2023-04-11T09:47:22.914Z,41.02
2023-04-11T09:48:18.529Z,49.33
2023-04-11T09:49:13.757Z,65.79
2023-04-11T09:50:10.399Z,81.46
2023-04-11T09:51:05.831Z,94.78
2023-04-11T09:52:01.660Z,104.75
2023-04-11T09:52:59.046Z,121.72
2023-04-11T09:53:52.769Z,136.34
2023-04-11T09:54:47.812Z,143.86
2023-04-11T09:55:42.888Z,143.86
2023-04-11T09:56:37.976Z,161.39
2023-04-11T09:57:35.051Z,185.83
2023-04-11T09:58:31.316Z,199.51
2023-04-11T09:59:25.164Z,207.98
2023-04-11T10:00:20.210Z,230.64
2023-04-11T10:01:15.438Z,246.40
2023-04-11T10:02:10.499Z,276.97
2023-04-11T10:03:05.697Z,298.11
2023-04-11T10:04:00.711Z,268.58
2023-04-11T10:04:55.608Z,227.91
2023-04-11T10:05:50.658Z,235.77
2023-04-11T10:06:45.768Z,275.81
2023-04-11T10:07:40.786Z,303.07
2023-04-11T10:08:36.002Z,341.56
2023-04-11T10:09:31.460Z,368.81
2023-04-11T10:10:27.370Z,369.64
2023-04-11T10:11:24.174Z,383.90
2023-04-11T10:12:18.204Z,398.11
2023-04-11T10:13:13.477Z,406.36
2023-04-11T10:14:08.405Z,411.88
2023-04-11T10:15:03.467Z,448.14
2023-04-11T10:15:58.520Z,469.27
2023-04-11T10:16:53.615Z,489.60
2023-04-11T10:17:48.748Z,498.38
2023-04-11T10:18:43.783Z,508.26
2023-04-11T10:19:38.890Z,516.92
2023-04-11T10:20:34.071Z,538.64
2023-04-11T10:21:29.173Z,541.26
2023-04-11T10:22:24.255Z,549.74
2023-04-11T10:23:21.528Z,553.39
2023-04-11T10:24:17.563Z,565.59
2023-04-11T10:26:36.956Z,651.20
2023-04-11T10:27:32.325Z,556.16
2023-04-11T10:28:27.549Z,545.24
2023-04-11T10:29:22.906Z,531.77
2023-04-11T10:30:18.399Z,547.48
2023-04-11T10:31:13.882Z,561.78
2023-04-11T10:32:09.513Z,596.99
2023-04-11T10:33:05.058Z,658.93
2023-04-11T10:34:00.323Z,700.46
2023-04-11T10:34:55.743Z,701.93
2023-04-11T10:35:51.244Z,724.82
2023-04-11T10:36:46.726Z,720.12
2023-04-11T10:37:42.149Z,707.14
2023-04-11T10:38:37.599Z,731.98
2023-04-11T10:39:32.937Z,733.59
2023-04-11T10:40:28.243Z,724.82
2023-04-11T10:41:23.798Z,755.09
2023-04-11T10:42:19.216Z,787.61
2023-04-11T10:43:14.847Z,812.04
2023-04-11T10:44:10.207Z,838.04
2023-04-11T10:45:05.803Z,824.07
2023-04-11T10:46:01.088Z,832.81
2023-04-11T10:46:56.657Z,842.27
2023-04-11T10:47:52.326Z,856.32
2023-04-11T10:48:47.802Z,772.12
2023-04-11T10:49:44.430Z,753.39
2023-04-11T10:50:38.542Z,798.92
2023-04-11T10:51:34.066Z,847.08
2023-04-11T10:52:29.493Z,888.22
2023-04-11T10:53:24.793Z,927.73
2023-04-11T10:54:20.392Z,921.33
2023-04-11T10:55:15.700Z,944.80
2023-04-11T10:56:11.119Z,945.47
2023-04-11T10:57:06.588Z,906.31
2023-04-11T10:58:01.964Z,950.85
2023-04-11T10:58:57.503Z,916.27
2023-04-11T10:59:52.739Z,884.11
2023-04-11T11:00:48.139Z,883.52
2023-04-11T11:02:40.556Z,884.69
2023-04-11T11:03:34.761Z,803.25
2023-04-11T11:04:30.493Z,787.15
2023-04-11T11:05:25.821Z,789.94
2023-04-11T11:06:21.211Z,822.04
2023-04-11T11:07:16.502Z,890.59
2023-04-11T11:08:12.056Z,877.71
2023-04-11T11:09:07.713Z,895.37
2023-04-11T11:10:02.925Z,888.22
2023-04-11T11:10:58.336Z,897.18
2023-04-11T11:11:53.701Z,886.45
2023-04-11T11:12:49.365Z,769.90
2023-04-11T11:13:44.770Z,697.52
2023-04-11T11:14:40.342Z,693.17
2023-04-11T11:15:35.532Z,691.02
2023-04-11T11:16:31.100Z,704.15
2023-04-11T11:17:26.368Z,740.93
2023-04-11T11:18:21.815Z,780.24
2023-04-11T11:19:17.526Z,797.97
2023-04-11T11:20:13.216Z,826.62
2023-04-11T11:21:14.137Z,913.76
2023-04-11T11:22:04.942Z,955.62
2023-04-11T11:22:59.431Z,949.50
2023-04-11T11:23:55.169Z,860.73
2023-04-11T11:24:50.553Z,876.56
2023-04-11T11:25:45.831Z,906.93
2023-04-11T11:26:41.347Z,908.16
2023-04-11T11:27:36.815Z,906.93
2023-04-11T11:28:32.177Z,930.96
2023-04-11T11:29:27.593Z,969.50
2023-04-11T11:30:22.931Z,994.04
2023-04-11T11:31:18.442Z,1023.77
2023-04-11T11:32:14.015Z,1003.76
2023-04-11T11:33:09.356Z,1012.13
2023-04-11T11:34:22.161Z,1027.71
2023-04-11T11:35:01.079Z,1041.34
2023-04-11T11:35:55.516Z,1015.98